Portada
METAR-TAF:

METAR-TAF

Aeropuertos :

Mount Pleasant Municipal Airport

Mount Pleasant, Iowa, Estados Unidos

latitud: 40-56-48N, longitud: 091-30-40W, altitud: 224 m

Observación

El informe se hizo hace 8 minutos, a las 06:55 UTC
Viento calma
Temperatura 13°C
Humedad 82%
Presión 1024 hPa
Visibilidad: 16.1 km
Cielo despejado

METAR: KMPZ 310655Z AUTO 00000KT 10SM CLR 13/10 A3025 RMK AO2

Hora: 02:03 (07:03 UTC)


TAF: falta

Observaciones y pronósticos meteorológicos de más de 4000 aeropuertos (mensajes METAR y TAF).

Los puntos amarillos y rojos representan las estaciones disponibles.

Ponga el ratón en el punto deseado para ver el nombre de la estación.

Haga clic para ver las observaciones y los pronósticos meteorológicos.

Para cambiar el mapa : haga clic en los botones verdes con una cruz de color negro para hacer un zoom, en el botón verde con un guión para alejar o en las flechas verdes para mapas adyacentes.


METAR-TAF: